createdAt,value
2018-01-22T00:00:05.500Z,974.89
2018-01-22T00:01:04.996Z,974.99
2018-01-22T00:02:05.746Z,974.95
2018-01-22T00:03:05.336Z,974.97
2018-01-22T00:04:05.153Z,974.97
2018-01-22T00:05:05.312Z,974.92
2018-01-22T00:06:05.888Z,975.24
2018-01-22T00:07:05.692Z,974.99
2018-01-22T00:08:05.356Z,975.13
2018-01-22T00:09:06.071Z,975.19
2018-01-22T00:10:05.847Z,975.25
2018-01-22T00:11:05.758Z,975.02
2018-01-22T00:12:05.815Z,975.25
2018-01-22T00:13:05.922Z,975.16
2018-01-22T00:14:05.858Z,975.05
2018-01-22T00:15:05.505Z,975.02
2018-01-22T00:16:05.255Z,975.05
2018-01-22T00:17:10.347Z,974.95
2018-01-22T00:18:05.589Z,975.02
2018-01-22T00:19:05.619Z,974.97
2018-01-22T00:20:05.820Z,974.95
2018-01-22T00:21:05.350Z,974.95
2018-01-22T00:22:05.587Z,975.03
2018-01-22T00:23:05.270Z,975.00
2018-01-22T00:24:05.128Z,974.95
2018-01-22T00:25:05.818Z,975.03
2018-01-22T00:26:05.786Z,974.87
2018-01-22T00:27:05.470Z,974.97
2018-01-22T00:28:05.999Z,974.84
2018-01-22T00:29:05.340Z,974.95
2018-01-22T00:30:05.985Z,974.97
2018-01-22T00:31:05.377Z,974.90
2018-01-22T00:32:05.409Z,974.97
2018-01-22T00:33:05.374Z,974.87
2018-01-22T00:34:05.431Z,974.81
2018-01-22T00:35:05.241Z,974.82
2018-01-22T00:36:05.631Z,974.84
2018-01-22T00:37:05.568Z,974.87
2018-01-22T00:38:05.225Z,974.84
2018-01-22T00:39:05.296Z,974.70
2018-01-22T00:40:05.189Z,974.79
2018-01-22T00:41:05.094Z,974.73
2018-01-22T00:42:05.267Z,974.65
2018-01-22T00:43:05.881Z,974.51
2018-01-22T00:44:05.432Z,974.78
2018-01-22T00:45:05.530Z,974.73
2018-01-22T00:46:05.559Z,974.70
2018-01-22T00:47:05.283Z,974.59
2018-01-22T00:48:05.923Z,974.59
2018-01-22T00:49:05.326Z,974.56
2018-01-22T00:50:05.020Z,974.59
2018-01-22T00:51:05.309Z,974.70
2018-01-22T00:52:06.044Z,974.69
2018-01-22T00:53:05.333Z,974.50
2018-01-22T00:54:05.483Z,974.61
2018-01-22T00:55:05.323Z,974.53
2018-01-22T00:56:05.910Z,974.66
2018-01-22T00:57:05.884Z,974.50
2018-01-22T00:58:05.851Z,974.52
2018-01-22T00:59:05.096Z,974.50
2018-01-22T01:00:05.913Z,974.44
2018-01-22T01:01:05.224Z,974.44
2018-01-22T01:02:05.709Z,974.52
2018-01-22T01:03:05.084Z,974.52
2018-01-22T01:04:05.551Z,974.36
2018-01-22T01:05:05.455Z,974.47
2018-01-22T01:06:05.247Z,974.47
2018-01-22T01:07:05.517Z,974.33
2018-01-22T01:08:05.916Z,974.30
2018-01-22T01:09:06.018Z,974.19
2018-01-22T01:10:05.796Z,974.22
2018-01-22T01:11:05.283Z,974.19
2018-01-22T01:12:05.831Z,973.97
2018-01-22T01:13:05.450Z,974.19
2018-01-22T01:14:05.065Z,974.19
2018-01-22T01:15:05.542Z,974.24
2018-01-22T01:16:10.775Z,974.30
2018-01-22T01:17:05.026Z,974.13
2018-01-22T01:18:05.981Z,974.13
2018-01-22T01:19:05.555Z,974.24
2018-01-22T01:20:05.269Z,974.13
2018-01-22T01:21:05.881Z,974.41
2018-01-22T01:22:06.011Z,974.16
2018-01-22T01:23:05.177Z,974.16
2018-01-22T01:24:05.159Z,974.16
2018-01-22T01:25:05.213Z,974.10
2018-01-22T01:26:05.988Z,974.29
2018-01-22T01:27:05.630Z,974.21
2018-01-22T01:28:05.254Z,974.18
2018-01-22T01:29:05.334Z,974.38
2018-01-22T01:30:05.827Z,974.27
2018-01-22T01:31:05.413Z,974.29
2018-01-22T01:32:05.117Z,974.24
2018-01-22T01:33:05.779Z,974.16
2018-01-22T01:34:05.431Z,974.13
2018-01-22T01:35:05.323Z,974.40
2018-01-22T01:36:05.958Z,974.15
2018-01-22T01:37:05.448Z,974.18
2018-01-22T01:38:05.275Z,974.24
2018-01-22T01:39:05.419Z,974.40
2018-01-22T01:40:04.989Z,974.29
2018-01-22T01:41:06.005Z,974.37
2018-01-22T01:42:05.793Z,974.20
2018-01-22T01:43:05.707Z,974.17
2018-01-22T01:44:05.936Z,974.12
2018-01-22T01:45:05.015Z,974.20
2018-01-22T01:46:10.032Z,974.22
2018-01-22T01:47:05.272Z,974.09
2018-01-22T01:48:05.375Z,974.03
2018-01-22T01:49:05.469Z,974.08
2018-01-22T01:50:05.543Z,974.19
2018-01-22T01:51:04.928Z,974.22
2018-01-22T01:52:05.698Z,974.11
2018-01-22T01:53:05.335Z,974.16
2018-01-22T01:54:05.082Z,974.08
2018-01-22T01:55:05.331Z,974.02
2018-01-22T01:56:05.154Z,974.18
2018-01-22T01:57:06.221Z,974.13
2018-01-22T01:58:05.478Z,974.21
2018-01-22T01:59:05.368Z,974.15
2018-01-22T02:00:05.696Z,974.07
2018-01-22T02:01:05.161Z,974.23
2018-01-22T02:02:05.843Z,974.01
2018-01-22T02:03:05.508Z,974.04
2018-01-22T02:04:05.147Z,974.23
2018-01-22T02:05:05.198Z,974.01
2018-01-22T02:06:05.524Z,973.87
2018-01-22T02:07:05.370Z,973.89
2018-01-22T02:08:05.951Z,973.95
2018-01-22T02:09:05.675Z,973.87
2018-01-22T02:10:05.478Z,973.78
2018-01-22T02:11:05.076Z,973.86
2018-01-22T02:12:05.907Z,973.84
2018-01-22T02:13:05.368Z,973.70
2018-01-22T02:14:05.358Z,973.58
2018-01-22T02:15:05.248Z,973.67
2018-01-22T02:16:04.998Z,973.64
2018-01-22T02:17:06.402Z,973.64
2018-01-22T02:18:05.501Z,973.58
2018-01-22T02:19:05.736Z,973.61
2018-01-22T02:20:05.878Z,973.61
2018-01-22T02:21:05.237Z,973.45
2018-01-22T02:22:05.148Z,973.45
2018-01-22T02:23:05.085Z,973.28
2018-01-22T02:24:05.735Z,973.34
2018-01-22T02:25:05.544Z,973.39
2018-01-22T02:26:05.999Z,973.23
2018-01-22T02:27:05.645Z,973.34
2018-01-22T02:28:05.113Z,973.31
2018-01-22T02:29:05.439Z,973.23
2018-01-22T02:30:06.025Z,973.23
2018-01-22T02:31:05.654Z,973.28
2018-01-22T02:32:05.678Z,973.36
2018-01-22T02:33:05.543Z,973.28
2018-01-22T02:34:05.420Z,973.23
2018-01-22T02:35:05.239Z,973.20
2018-01-22T02:36:05.520Z,973.06
2018-01-22T02:37:05.843Z,973.14
2018-01-22T02:38:05.731Z,973.20
2018-01-22T02:39:05.046Z,973.11
2018-01-22T02:40:05.935Z,973.03
2018-01-22T02:41:05.649Z,972.97
2018-01-22T02:42:05.959Z,973.00
2018-01-22T02:43:05.717Z,972.92
2018-01-22T02:44:05.021Z,973.00
2018-01-22T02:45:06.014Z,973.06
2018-01-22T02:46:05.136Z,973.00
2018-01-22T02:47:05.984Z,973.00
2018-01-22T02:48:05.194Z,972.98
2018-01-22T02:49:05.910Z,972.92
2018-01-22T02:50:05.496Z,972.81
2018-01-22T02:51:05.426Z,972.81
2018-01-22T02:52:05.894Z,972.87
2018-01-22T02:53:05.360Z,972.73
2018-01-22T02:54:05.162Z,972.81
2018-01-22T02:55:05.174Z,972.89
2018-01-22T02:56:05.674Z,972.70
2018-01-22T02:57:05.249Z,972.78
2018-01-22T02:58:05.945Z,972.73
2018-01-22T02:59:05.058Z,972.76
2018-01-22T03:00:06.121Z,972.73
2018-01-22T03:01:05.566Z,972.70
2018-01-22T03:02:05.801Z,972.73
2018-01-22T03:03:05.745Z,972.78
2018-01-22T03:04:05.175Z,972.73
2018-01-22T03:05:05.928Z,972.67
2018-01-22T03:06:05.943Z,972.79
2018-01-22T03:07:05.898Z,972.87
2018-01-22T03:08:05.540Z,972.70
2018-01-22T03:09:05.444Z,972.76
2018-01-22T03:10:05.468Z,972.79
2018-01-22T03:11:05.157Z,972.90
2018-01-22T03:12:05.627Z,972.90
2018-01-22T03:13:05.532Z,972.93
2018-01-22T03:14:05.847Z,972.95
2018-01-22T03:15:05.316Z,972.56
2018-01-22T03:16:05.811Z,972.65
2018-01-22T03:17:06.077Z,972.67
2018-01-22T03:18:06.197Z,972.49
2018-01-22T03:19:06.025Z,972.67
2018-01-22T03:20:05.575Z,972.62
2018-01-22T03:21:05.398Z,972.68
2018-01-22T03:22:05.641Z,972.70
2018-01-22T03:23:05.751Z,972.79
2018-01-22T03:24:05.898Z,972.70
2018-01-22T03:25:05.446Z,972.54
2018-01-22T03:26:05.900Z,972.38
2018-01-22T03:27:05.263Z,972.49
2018-01-22T03:28:06.162Z,972.46
2018-01-22T03:29:05.219Z,972.32
2018-01-22T03:30:05.386Z,972.18
2018-01-22T03:31:05.785Z,972.35
2018-01-22T03:32:05.444Z,972.27
2018-01-22T03:33:05.130Z,972.29
2018-01-22T03:34:05.770Z,972.35
2018-01-22T03:35:06.018Z,972.27
2018-01-22T03:36:05.732Z,972.35
2018-01-22T03:37:05.386Z,972.32
2018-01-22T03:38:05.326Z,972.38
2018-01-22T03:39:05.698Z,972.40
2018-01-22T03:40:05.523Z,972.35
2018-01-22T03:41:05.623Z,972.35
2018-01-22T03:42:05.286Z,972.32
2018-01-22T03:43:05.262Z,972.26
2018-01-22T03:44:05.869Z,972.15
2018-01-22T03:45:05.671Z,972.21
2018-01-22T03:46:05.405Z,972.18
2018-01-22T03:47:05.025Z,972.10
2018-01-22T03:48:05.631Z,972.21
2018-01-22T03:49:05.501Z,971.99
2018-01-22T03:50:05.193Z,972.10
2018-01-22T03:51:06.082Z,972.18
2018-01-22T03:52:05.467Z,971.93
2018-01-22T03:53:05.520Z,972.18
2018-01-22T03:54:05.981Z,972.04
2018-01-22T03:55:05.200Z,972.04
2018-01-22T03:56:05.181Z,971.98
2018-01-22T03:57:05.944Z,972.04
2018-01-22T03:58:05.629Z,972.12
2018-01-22T03:59:06.026Z,971.93
2018-01-22T04:00:05.495Z,971.87
2018-01-22T04:01:05.129Z,971.90
2018-01-22T04:02:05.066Z,972.01
2018-01-22T04:03:05.110Z,972.04
2018-01-22T04:04:05.490Z,971.98
2018-01-22T04:05:05.756Z,972.01
2018-01-22T04:06:05.873Z,971.77
2018-01-22T04:07:05.550Z,971.74
2018-01-22T04:08:05.830Z,971.68
2018-01-22T04:09:05.297Z,971.79
2018-01-22T04:10:05.286Z,971.74
2018-01-22T04:11:05.400Z,971.82
2018-01-22T04:12:05.959Z,971.76
2018-01-22T04:13:05.396Z,971.89
2018-01-22T04:14:05.285Z,971.86
2018-01-22T04:15:05.942Z,971.68
2018-01-22T04:16:04.999Z,971.74
2018-01-22T04:17:05.811Z,971.65
2018-01-22T04:18:05.732Z,971.79
2018-01-22T04:19:05.879Z,971.76
2018-01-22T04:20:05.678Z,971.87
2018-01-22T04:21:05.317Z,971.76
2018-01-22T04:22:05.069Z,971.65
2018-01-22T04:23:05.586Z,971.74
2018-01-22T04:24:05.241Z,971.84
2018-01-22T04:25:05.961Z,971.60
2018-01-22T04:26:05.026Z,971.54
2018-01-22T04:27:05.096Z,971.65
2018-01-22T04:28:05.716Z,971.65
2018-01-22T04:29:05.227Z,971.71
2018-01-22T04:30:05.277Z,971.76
2018-01-22T04:31:05.153Z,971.76
2018-01-22T04:32:05.919Z,971.71
2018-01-22T04:33:05.865Z,971.82
2018-01-22T04:34:05.687Z,971.73
2018-01-22T04:35:05.404Z,971.84
2018-01-22T04:36:05.168Z,971.79
2018-01-22T04:37:05.715Z,971.73
2018-01-22T04:38:05.410Z,971.76
2018-01-22T04:39:05.371Z,971.79
2018-01-22T04:40:05.079Z,971.76
2018-01-22T04:41:10.060Z,971.76
2018-01-22T04:42:05.100Z,971.92
2018-01-22T04:43:05.512Z,971.82
2018-01-22T04:44:05.701Z,971.57
2018-01-22T04:45:05.597Z,971.62
2018-01-22T04:46:05.269Z,971.54
2018-01-22T04:47:05.113Z,971.57
2018-01-22T04:48:05.540Z,971.68
2018-01-22T04:49:05.547Z,971.65
2018-01-22T04:50:05.366Z,971.62
2018-01-22T04:51:05.293Z,971.54
2018-01-22T04:52:05.947Z,971.51
2018-01-22T04:53:05.791Z,971.29
2018-01-22T04:54:04.997Z,971.48
2018-01-22T04:55:05.472Z,971.29
2018-01-22T04:56:05.837Z,971.48
2018-01-22T04:57:06.007Z,971.29
2018-01-22T04:58:10.906Z,971.18
2018-01-22T04:59:06.144Z,971.26
2018-01-22T05:00:10.117Z,971.26
2018-01-22T05:01:05.613Z,971.09
2018-01-22T05:02:05.180Z,971.15
2018-01-22T05:03:06.031Z,970.98
2018-01-22T05:04:05.626Z,970.93
2018-01-22T05:05:05.170Z,970.84
2018-01-22T05:06:05.903Z,970.93
2018-01-22T05:07:06.038Z,970.87
2018-01-22T05:08:05.031Z,970.98
2018-01-22T05:09:05.683Z,970.87
2018-01-22T05:10:05.497Z,970.93
2018-01-22T05:11:05.914Z,970.96
2018-01-22T05:12:05.423Z,970.85
2018-01-22T05:13:05.597Z,970.76
2018-01-22T05:14:05.045Z,970.70
2018-01-22T05:15:05.687Z,970.76
2018-01-22T05:16:05.021Z,970.90
2018-01-22T05:17:05.865Z,970.81
2018-01-22T05:18:05.093Z,970.76
2018-01-22T05:19:05.075Z,970.79
2018-01-22T05:20:05.925Z,970.67
2018-01-22T05:21:05.978Z,970.70
2018-01-22T05:22:05.239Z,970.87
2018-01-22T05:23:05.468Z,970.73
2018-01-22T05:24:05.863Z,970.73
2018-01-22T05:25:05.428Z,970.78
2018-01-22T05:26:05.351Z,970.59
2018-01-22T05:27:05.717Z,970.48
2018-01-22T05:28:05.566Z,970.38
2018-01-22T05:29:05.425Z,970.62
2018-01-22T05:30:05.278Z,970.48
2018-01-22T05:31:05.389Z,970.48
2018-01-22T05:32:10.594Z,970.45
2018-01-22T05:33:05.736Z,970.48
2018-01-22T05:34:05.663Z,970.56
2018-01-22T05:35:05.303Z,970.59
2018-01-22T05:36:05.640Z,970.67
2018-01-22T05:37:05.480Z,970.59
2018-01-22T05:38:05.489Z,970.56
2018-01-22T05:39:05.458Z,970.64
2018-01-22T05:40:05.801Z,970.62
2018-01-22T05:41:05.634Z,970.62
2018-01-22T05:42:05.313Z,970.53
2018-01-22T05:43:06.000Z,970.62
2018-01-22T05:44:05.750Z,970.78
2018-01-22T05:45:05.437Z,970.53
2018-01-22T05:46:05.130Z,970.67
2018-01-22T05:47:05.710Z,970.84
2018-01-22T05:48:05.551Z,970.73
2018-01-22T05:49:05.767Z,970.92
2018-01-22T05:50:05.581Z,970.89
2018-01-22T05:51:05.168Z,970.86
2018-01-22T05:52:05.932Z,970.78
2018-01-22T05:53:06.033Z,970.89
2018-01-22T05:54:05.107Z,970.95
2018-01-22T05:55:05.410Z,970.86
2018-01-22T05:56:05.053Z,971.00
2018-01-22T05:57:05.576Z,970.92
2018-01-22T05:58:05.696Z,970.92
2018-01-22T05:59:05.597Z,971.03
2018-01-22T06:00:05.697Z,970.89
2018-01-22T06:01:05.241Z,971.00
2018-01-22T06:02:05.396Z,970.86
2018-01-22T06:03:05.327Z,970.89
2018-01-22T06:04:05.321Z,970.75
2018-01-22T06:05:05.609Z,970.69
2018-01-22T06:06:05.348Z,970.94
2018-01-22T06:07:05.084Z,970.89
2018-01-22T06:08:05.057Z,970.80
2018-01-22T06:09:05.245Z,970.66
2018-01-22T06:10:05.446Z,970.55
2018-01-22T06:11:05.961Z,970.61
2018-01-22T06:12:05.122Z,970.80
2018-01-22T06:13:05.738Z,970.72
2018-01-22T06:14:05.373Z,970.78
2018-01-22T06:15:05.333Z,970.89
2018-01-22T06:16:06.040Z,970.80
2018-01-22T06:17:05.345Z,970.91
2018-01-22T06:18:05.539Z,970.91
2018-01-22T06:19:05.035Z,970.91
2018-01-22T06:20:05.879Z,970.83
2018-01-22T06:21:10.949Z,970.91
2018-01-22T06:22:05.715Z,970.97
2018-01-22T06:23:05.752Z,970.83
2018-01-22T06:24:05.312Z,970.97
2018-01-22T06:25:05.961Z,971.05
2018-01-22T06:26:05.069Z,971.02
2018-01-22T06:27:05.777Z,971.08
2018-01-22T06:28:05.692Z,970.94
2018-01-22T06:29:05.300Z,971.05
2018-01-22T06:30:05.022Z,971.08
2018-01-22T06:31:06.108Z,970.99
2018-01-22T06:32:05.222Z,970.99
2018-01-22T06:33:05.823Z,970.97
2018-01-22T06:34:05.092Z,970.96
2018-01-22T06:35:10.454Z,970.96
2018-01-22T06:36:05.496Z,970.85
2018-01-22T06:37:05.814Z,970.71
2018-01-22T06:38:05.145Z,970.80
2018-01-22T06:39:05.479Z,970.69
2018-01-22T06:40:06.119Z,970.74
2018-01-22T06:41:05.301Z,970.66
2018-01-22T06:42:05.261Z,970.85
2018-01-22T06:43:05.449Z,970.74
2018-01-22T06:44:05.500Z,970.82
2018-01-22T06:45:05.542Z,970.63
2018-01-22T06:46:06.048Z,970.55
2018-01-22T06:47:05.972Z,970.57
2018-01-22T06:48:05.722Z,970.60
2018-01-22T06:49:05.290Z,970.52
2018-01-22T06:50:05.381Z,970.60
2018-01-22T06:51:05.412Z,970.36
2018-01-22T06:52:05.684Z,970.49
2018-01-22T06:53:05.549Z,970.46
2018-01-22T06:54:05.365Z,970.49
2018-01-22T06:55:05.664Z,970.46
2018-01-22T06:56:05.777Z,970.30
2018-01-22T06:57:06.018Z,970.49
2018-01-22T06:58:05.536Z,970.43
2018-01-22T06:59:05.236Z,970.22
2018-01-22T07:00:05.187Z,970.30
2018-01-22T07:01:05.298Z,970.36
2018-01-22T07:02:05.758Z,970.30
2018-01-22T07:03:05.614Z,970.28
2018-01-22T07:04:05.790Z,970.33
2018-01-22T07:05:05.286Z,970.25
2018-01-22T07:06:05.837Z,970.33
2018-01-22T07:07:05.530Z,970.33
2018-01-22T07:08:06.062Z,970.14
2018-01-22T07:09:06.297Z,970.08
2018-01-22T07:10:06.303Z,970.28
2018-01-22T07:11:05.788Z,970.11
2018-01-22T07:12:05.825Z,970.11
2018-01-22T07:13:05.806Z,970.02
2018-01-22T07:14:05.595Z,970.14
2018-01-22T07:15:10.812Z,970.27
2018-01-22T07:16:05.940Z,970.00
2018-01-22T07:17:06.040Z,970.11
2018-01-22T07:18:05.294Z,970.27
2018-01-22T07:19:05.085Z,970.08
2018-01-22T07:20:05.758Z,969.97
2018-01-22T07:21:05.352Z,970.05
2018-01-22T07:22:05.276Z,970.02
2018-01-22T07:23:05.795Z,969.92
2018-01-22T07:24:05.316Z,970.11
2018-01-22T07:25:06.070Z,970.08
2018-01-22T07:26:05.176Z,970.11
2018-01-22T07:27:05.134Z,970.11
2018-01-22T07:28:05.540Z,970.11
2018-01-22T07:29:05.322Z,970.16
2018-01-22T07:30:05.175Z,970.13
2018-01-22T07:31:05.234Z,970.16
2018-01-22T07:32:05.547Z,970.35
2018-01-22T07:33:05.004Z,970.16
2018-01-22T07:34:05.272Z,970.35
2018-01-22T07:35:06.035Z,970.30
2018-01-22T07:36:05.789Z,970.19
2018-01-22T07:37:05.918Z,970.42
2018-01-22T07:38:05.520Z,970.27
2018-01-22T07:39:05.717Z,970.18
2018-01-22T07:40:05.682Z,970.24
2018-01-22T07:41:05.320Z,970.18
2018-01-22T07:42:05.470Z,970.24
2018-01-22T07:43:05.190Z,970.27
2018-01-22T07:44:06.014Z,970.18
2018-01-22T07:45:05.641Z,970.13
2018-01-22T07:46:05.485Z,969.96
2018-01-22T07:47:05.419Z,970.07
2018-01-22T07:48:06.000Z,969.98
2018-01-22T07:49:10.531Z,970.10
2018-01-22T07:50:05.634Z,969.96
2018-01-22T07:51:06.072Z,970.18
2018-01-22T07:52:05.020Z,969.82
2018-01-22T07:53:05.117Z,970.01
2018-01-22T07:54:05.296Z,969.71
2018-01-22T07:55:06.272Z,969.88
2018-01-22T07:56:05.356Z,969.85
2018-01-22T07:57:05.869Z,969.98
2018-01-22T07:58:05.628Z,969.87
2018-01-22T07:59:05.434Z,969.93
2018-01-22T08:00:05.726Z,969.79
2018-01-22T08:01:05.332Z,969.90
2018-01-22T08:02:06.065Z,969.76
2018-01-22T08:03:06.178Z,969.82
2018-01-22T08:04:06.260Z,969.62
2018-01-22T08:05:05.839Z,969.73
2018-01-22T08:06:05.735Z,969.68
2018-01-22T08:07:05.461Z,969.70
2018-01-22T08:08:06.323Z,969.70
2018-01-22T08:09:05.738Z,969.67
2018-01-22T08:10:04.967Z,969.92
2018-01-22T08:11:05.017Z,969.87
2018-01-22T08:12:09.996Z,969.78
2018-01-22T08:13:05.264Z,969.67
2018-01-22T08:14:10.223Z,969.78
2018-01-22T08:15:05.577Z,969.73
2018-01-22T08:16:05.458Z,969.97
2018-01-22T08:17:05.644Z,970.00
2018-01-22T08:18:05.782Z,969.92
2018-01-22T08:19:05.924Z,970.16
2018-01-22T08:20:06.068Z,970.05
2018-01-22T08:21:05.600Z,970.02
2018-01-22T08:22:05.236Z,970.11
2018-01-22T08:23:05.918Z,970.16
2018-01-22T08:24:05.812Z,970.13
2018-01-22T08:25:05.808Z,970.16
2018-01-22T08:26:04.993Z,970.24
2018-01-22T08:27:06.063Z,970.02
2018-01-22T08:28:05.734Z,970.21
2018-01-22T08:29:05.700Z,970.21
2018-01-22T08:30:05.855Z,970.24
2018-01-22T08:31:05.184Z,970.07
2018-01-22T08:32:06.242Z,970.07
2018-01-22T08:33:05.746Z,969.99
2018-01-22T08:34:05.575Z,969.88
2018-01-22T08:35:05.354Z,969.96
2018-01-22T08:36:05.641Z,969.91
2018-01-22T08:37:05.207Z,969.85
2018-01-22T08:38:05.984Z,969.82
2018-01-22T08:39:04.985Z,969.85
2018-01-22T08:40:05.554Z,969.98
2018-01-22T08:41:05.674Z,969.82
2018-01-22T08:42:05.352Z,969.79
2018-01-22T08:43:05.126Z,969.88
2018-01-22T08:44:05.624Z,969.88
2018-01-22T08:45:05.027Z,969.98
2018-01-22T08:46:05.155Z,970.06
2018-01-22T08:47:05.982Z,969.93
2018-01-22T08:48:05.063Z,970.00
2018-01-22T08:49:05.121Z,969.90
2018-01-22T08:50:06.286Z,970.08
2018-01-22T08:51:05.665Z,970.08
2018-01-22T08:52:05.522Z,970.06
2018-01-22T08:53:05.619Z,970.11
2018-01-22T08:54:05.571Z,970.02
2018-01-22T08:55:05.725Z,970.05
2018-01-22T08:56:05.802Z,970.05
2018-01-22T08:57:05.929Z,970.08
2018-01-22T08:58:05.257Z,969.97
2018-01-22T08:59:05.808Z,970.05
2018-01-22T09:00:05.073Z,970.08
2018-01-22T09:01:05.433Z,970.08
2018-01-22T09:02:05.455Z,969.89
2018-01-22T09:03:05.452Z,969.78
2018-01-22T09:04:05.795Z,969.99
2018-01-22T09:05:05.303Z,969.96
2018-01-22T09:06:05.561Z,969.86
2018-01-22T09:07:05.216Z,969.89
2018-01-22T09:08:05.225Z,969.86
2018-01-22T09:09:05.604Z,969.83
2018-01-22T09:10:05.020Z,969.85
2018-01-22T09:11:05.167Z,969.69
2018-01-22T09:12:06.028Z,969.68
2018-01-22T09:13:05.773Z,969.91
2018-01-22T09:14:05.927Z,969.90
2018-01-22T09:15:05.997Z,969.62
2018-01-22T09:16:06.065Z,969.79
2018-01-22T09:17:05.328Z,969.79
2018-01-22T09:18:10.211Z,969.71
2018-01-22T09:19:05.443Z,969.70
2018-01-22T09:20:05.546Z,969.73
2018-01-22T09:21:05.531Z,969.73
2018-01-22T09:22:05.226Z,969.70
2018-01-22T09:23:05.209Z,969.51
2018-01-22T09:24:06.026Z,969.59
2018-01-22T09:25:05.857Z,969.67
2018-01-22T09:26:05.695Z,969.67
2018-01-22T09:27:05.655Z,969.45
2018-01-22T09:28:05.297Z,969.39
2018-01-22T09:29:06.049Z,969.56
2018-01-22T09:30:05.389Z,969.50
2018-01-22T09:31:05.828Z,969.42
2018-01-22T09:32:05.750Z,969.53
2018-01-22T09:33:05.768Z,969.28
2018-01-22T09:34:05.328Z,969.50
2018-01-22T09:35:05.197Z,969.42
2018-01-22T09:36:05.507Z,969.22
2018-01-22T09:37:05.169Z,969.39
2018-01-22T09:38:05.889Z,969.30
2018-01-22T09:39:05.821Z,969.33
2018-01-22T09:40:05.746Z,969.25
2018-01-22T09:41:05.107Z,969.41
2018-01-22T09:42:05.114Z,969.36
2018-01-22T09:43:05.548Z,969.25
2018-01-22T09:44:05.463Z,969.30
2018-01-22T09:45:05.405Z,969.44
2018-01-22T09:46:05.989Z,969.33
2018-01-22T09:47:05.378Z,969.33
2018-01-22T09:48:05.681Z,969.50
2018-01-22T09:49:05.330Z,969.44
2018-01-22T09:50:05.802Z,969.52
2018-01-22T09:51:05.819Z,969.41
2018-01-22T09:52:06.054Z,969.50
2018-01-22T09:53:05.559Z,969.33
2018-01-22T09:54:05.515Z,969.44
2018-01-22T09:55:05.344Z,969.44
2018-01-22T09:56:06.062Z,969.52
2018-01-22T09:57:05.381Z,969.49
2018-01-22T09:58:05.099Z,969.49
2018-01-22T09:59:05.185Z,969.35
2018-01-22T10:00:05.815Z,969.19
2018-01-22T10:01:05.281Z,969.41
2018-01-22T10:02:05.105Z,969.35
2018-01-22T10:03:05.416Z,969.41
2018-01-22T10:04:06.318Z,969.38
2018-01-22T10:05:05.601Z,969.43
2018-01-22T10:06:05.436Z,969.24
2018-01-22T10:07:05.167Z,969.32
2018-01-22T10:08:04.963Z,969.29
2018-01-22T10:09:05.768Z,969.32
2018-01-22T10:10:06.036Z,969.37
2018-01-22T10:11:05.441Z,969.42
2018-01-22T10:12:05.503Z,969.20
2018-01-22T10:13:05.557Z,969.25
2018-01-22T10:14:05.963Z,969.31
2018-01-22T10:15:05.618Z,969.20
2018-01-22T10:16:05.158Z,969.14
2018-01-22T10:17:05.754Z,969.11
2018-01-22T10:18:05.155Z,969.31
2018-01-22T10:19:05.998Z,969.28
2018-01-22T10:20:05.594Z,969.17
2018-01-22T10:21:05.373Z,969.22
2018-01-22T10:22:05.227Z,969.14
2018-01-22T10:23:05.953Z,969.08
2018-01-22T10:24:05.720Z,969.11
2018-01-22T10:25:05.324Z,969.08
2018-01-22T10:26:05.313Z,969.13
2018-01-22T10:27:05.728Z,968.99
2018-01-22T10:28:05.802Z,968.97
2018-01-22T10:29:05.825Z,969.05
2018-01-22T10:30:05.120Z,968.97
2018-01-22T10:31:05.878Z,968.91
2018-01-22T10:32:05.775Z,968.91
2018-01-22T10:33:05.753Z,968.97
2018-01-22T10:34:05.616Z,968.97
2018-01-22T10:35:05.608Z,969.08
2018-01-22T10:36:05.176Z,969.13
2018-01-22T10:37:05.902Z,968.99
2018-01-22T10:38:05.908Z,968.88
2018-01-22T10:39:05.895Z,968.82
2018-01-22T10:40:05.179Z,968.88
2018-01-22T10:41:05.824Z,968.91
2018-01-22T10:42:05.050Z,968.74
2018-01-22T10:43:05.118Z,968.79
2018-01-22T10:44:05.847Z,968.96
2018-01-22T10:45:05.785Z,968.79
2018-01-22T10:46:05.461Z,968.66
2018-01-22T10:47:05.290Z,968.76
2018-01-22T10:48:05.280Z,968.82
2018-01-22T10:49:05.163Z,968.71
2018-01-22T10:50:05.633Z,968.87
2018-01-22T10:51:05.325Z,968.68
2018-01-22T10:52:05.309Z,968.65
2018-01-22T10:53:05.839Z,968.54
2018-01-22T10:54:05.696Z,968.62
2018-01-22T10:55:05.759Z,968.51
2018-01-22T10:56:10.860Z,968.62
2018-01-22T10:57:05.138Z,968.72
2018-01-22T10:58:05.775Z,968.56
2018-01-22T10:59:05.517Z,968.56
2018-01-22T11:00:05.409Z,968.61
2018-01-22T11:01:05.928Z,968.44
2018-01-22T11:02:06.005Z,968.55
2018-01-22T11:03:05.201Z,968.50
2018-01-22T11:04:05.844Z,968.55
2018-01-22T11:05:05.709Z,968.50
2018-01-22T11:06:05.609Z,968.52
2018-01-22T11:07:05.449Z,968.47
2018-01-22T11:08:05.858Z,968.46
2018-01-22T11:09:05.439Z,968.38
2018-01-22T11:10:05.667Z,968.44
2018-01-22T11:11:05.665Z,968.60
2018-01-22T11:12:05.737Z,968.55
2018-01-22T11:13:05.716Z,968.44
2018-01-22T11:14:05.187Z,968.55
2018-01-22T11:15:05.477Z,968.60
2018-01-22T11:16:06.163Z,968.49
2018-01-22T11:17:05.382Z,968.41
2018-01-22T11:18:05.765Z,968.30
2018-01-22T11:19:05.767Z,968.44
2018-01-22T11:20:05.098Z,968.47
2018-01-22T11:21:05.272Z,968.55
2018-01-22T11:22:05.072Z,968.38
2018-01-22T11:23:05.263Z,968.38
2018-01-22T11:24:06.022Z,968.36
2018-01-22T11:25:05.909Z,968.55
2018-01-22T11:26:06.138Z,968.47
2018-01-22T11:27:06.070Z,968.38
2018-01-22T11:28:10.343Z,968.33
2018-01-22T11:29:05.283Z,968.44
2018-01-22T11:30:05.705Z,968.33
2018-01-22T11:31:05.894Z,968.39
2018-01-22T11:32:05.659Z,968.38
2018-01-22T11:33:05.516Z,968.39
2018-01-22T11:34:06.050Z,968.47
2018-01-22T11:35:05.988Z,968.27
2018-01-22T11:36:05.045Z,968.22
2018-01-22T11:37:05.453Z,968.22
2018-01-22T11:38:05.999Z,968.27
2018-01-22T11:39:05.743Z,968.24
2018-01-22T11:40:05.532Z,968.21
2018-01-22T11:41:05.282Z,968.27
2018-01-22T11:42:05.473Z,968.27
2018-01-22T11:43:06.102Z,968.16
2018-01-22T11:44:05.704Z,968.19
2018-01-22T11:45:05.642Z,968.10
2018-01-22T11:46:05.611Z,968.13
2018-01-22T11:47:05.913Z,968.05
2018-01-22T11:48:05.605Z,968.05
2018-01-22T11:49:05.560Z,968.02
2018-01-22T11:50:05.112Z,968.05
2018-01-22T11:51:05.072Z,968.02
2018-01-22T11:52:05.956Z,967.94
2018-01-22T11:53:05.597Z,968.00
2018-01-22T11:54:05.587Z,967.89
2018-01-22T11:55:05.111Z,967.89
2018-01-22T11:56:05.270Z,967.92
2018-01-22T11:57:05.633Z,967.91
2018-01-22T11:58:05.112Z,967.80
2018-01-22T11:59:05.096Z,967.91
2018-01-22T12:00:05.836Z,967.97
2018-01-22T12:01:05.254Z,967.86
2018-01-22T12:02:05.585Z,967.77
2018-01-22T12:03:15.172Z,967.85
2018-01-22T12:04:05.574Z,967.94
2018-01-22T12:05:05.515Z,967.77
2018-01-22T12:06:05.363Z,967.68
2018-01-22T12:07:05.126Z,967.71
2018-01-22T12:08:05.333Z,967.68
2018-01-22T12:09:05.525Z,967.68
2018-01-22T12:10:06.033Z,967.67
2018-01-22T12:11:05.404Z,967.70
2018-01-22T12:12:05.381Z,967.76
2018-01-22T12:13:05.615Z,967.64
2018-01-22T12:14:05.632Z,967.59
2018-01-22T12:15:05.561Z,967.61
2018-01-22T12:16:05.675Z,967.56
2018-01-22T12:17:05.392Z,967.64
2018-01-22T12:18:05.180Z,967.64
2018-01-22T12:19:05.772Z,967.72
2018-01-22T12:20:05.126Z,967.66
2018-01-22T12:21:06.256Z,967.74
2018-01-22T12:22:05.347Z,967.66
2018-01-22T12:23:05.221Z,967.68
2018-01-22T12:24:05.432Z,967.63
2018-01-22T12:25:05.096Z,967.62
2018-01-22T12:26:05.295Z,967.73
2018-01-22T12:27:05.811Z,967.51
2018-01-22T12:28:05.756Z,967.76